< < Back
Terminal Aerodrome Forecast


Current Version              Previous Versions:   1  2  3  4  5  6  7  8  9  

Terminal Aerodrome Forecast

999
FTAK31 PAJN 260500
TAFAGS
TAF
PAGS 260538Z 2606/2706 VRB05KT P6SM OVC100
     FM260900 13005KT P6SM BKN060 OVC090
     FM261400 13010KT P6SM VCSH SCT030 BKN050
     FM262000 13012KT P6SM -RA SCT030 BKN050
      AMD LTD TO CLD VIS AND WIND=

Latest METAR

867
SAUS70 KWBC 261100 RRD
MTRAGS
METAR KAGS 261053Z 24010KT 10SM SCT010 18/17 A2963 RMK AO2 SLP030
T01830172


USA.gov is the U.S. government's official web portal to all federal, state and local government web resources and services.